This is the latest recevied weather packets stored in our database for station/object KD5UIG. If no packets are shown the sender has not sent any weather packets the latest 10 day(s).
| Time | Temp. | Humidity | Pressure | Rain* | Wind** | Luminosity | Snow |
|---|---|---|---|---|---|---|---|
| 1777378256 | 24.44° C | 86% | 1010.6 hPa | 0 mm | - | 12 W/m² | - |
| 1777373457 | 25° C | 86% | 1010.1 hPa | 0 mm | - | 0 W/m² | - |
| 1777373157 | 25° C | 86% | 1010 hPa | 0 mm | - | 0 W/m² | - |
| 1777371956 | 25° C | 86% | 1010 hPa | 0 mm | - | 0 W/m² | - |
| 1777371656 | 25° C | 86% | 1010 hPa | 0 mm | - | 0 W/m² | - |
| 1777367456 | 25° C | 87% | 1010.1 hPa | 0 mm | - | 0 W/m² | - |
| 1777366857 | 25° C | 87% | 1010.1 hPa | 0 mm | - | 0 W/m² | - |
| 1777365969 | 25° C | 87% | 1010.1 hPa | 0 mm | - | 0 W/m² | - |
| 1777365656 | 25° C | 87% | 1010.1 hPa | 0 mm | - | 0 W/m² | - |
| 1777365356 | 25° C | 87% | 1010.1 hPa | 0 mm | - | 0 W/m² | - |
| 1777362358 | 25° C | 86% | 1010.2 hPa | 0 mm | - | 0 W/m² | - |
| 1777360856 | 25° C | 85% | 1010.2 hPa | 0 mm | - | 0 W/m² | - |
| 1777359956 | 25° C | 85% | 1010.2 hPa | 0 mm | - | 0 W/m² | - |
| 1777358456 | 25° C | 84% | 1010 hPa | 0 mm | - | 0 W/m² | - |
| 1777355163 | 25.56° C | 82% | 1010.5 hPa | 0 mm | - | 0 W/m² | - |
| 1777350668 | 26.11° C | 80% | 1010.6 hPa | 0 mm | - | 0 W/m² | - |
| 1777350356 | 26.11° C | 79% | 1010.6 hPa | 0 mm | - | 0 W/m² | - |
| 1777349758 | 26.11° C | 79% | 1010.5 hPa | 0 mm | - | 0 W/m² | - |
| 1777346455 | 26.67° C | 75% | 1010.2 hPa | 0 mm | - | 0 W/m² | - |
| 1777344358 | 27.22° C | 69% | 1009.8 hPa | 0 mm | - | 0 W/m² | - |
| 1777343463 | 27.22° C | 67% | 1009.6 hPa | 0 mm | - | 0 W/m² | - |
| 1777343155 | 27.78° C | 64% | 1009.4 hPa | 0 mm | - | 0 W/m² | - |
| 1777342859 | 27.78° C | 62% | 1009.3 hPa | 0 mm | - | 0 W/m² | - |
| 1777342256 | 27.78° C | 58% | 1009.1 hPa | 0 mm | - | 0 W/m² | - |
| 1777341356 | 28.89° C | 54% | 1008.6 hPa | 0 mm | - | 0 W/m² | - |
* Rain latest hour (hover to see other rain measurements)
** Current wind speed in m/s (hover to see current wind gust speed)